sensor_id;sensor_type;location;lat;lon;timestamp;P1;durP1;ratioP1;P2;durP2;ratioP2
12962;SDS011;6546;49.882;8.666;2023-03-24T00:01:06;4.47;;;3.67;;
12962;SDS011;6546;49.882;8.666;2023-03-24T00:03:36;4.10;;;3.70;;
12962;SDS011;6546;49.882;8.666;2023-03-24T00:06:04;5.13;;;3.73;;
12962;SDS011;6546;49.882;8.666;2023-03-24T00:08:33;3.70;;;3.30;;
12962;SDS011;6546;49.882;8.666;2023-03-24T00:11:02;4.20;;;3.60;;
12962;SDS011;6546;49.882;8.666;2023-03-24T00:13:32;4.43;;;3.10;;
12962;SDS011;6546;49.882;8.666;2023-03-24T00:16:03;4.20;;;3.30;;
12962;SDS011;6546;49.882;8.666;2023-03-24T00:18:35;5.10;;;3.67;;
12962;SDS011;6546;49.882;8.666;2023-03-24T00:21:04;4.43;;;3.07;;
12962;SDS011;6546;49.882;8.666;2023-03-24T00:23:33;4.77;;;3.20;;
12962;SDS011;6546;49.882;8.666;2023-03-24T00:26:00;3.40;;;3.10;;
12962;SDS011;6546;49.882;8.666;2023-03-24T00:28:30;3.17;;;2.87;;
12962;SDS011;6546;49.882;8.666;2023-03-24T00:30:57;3.67;;;3.37;;
12962;SDS011;6546;49.882;8.666;2023-03-24T00:33:26;3.30;;;3.00;;
12962;SDS011;6546;49.882;8.666;2023-03-24T00:35:58;4.57;;;3.23;;
12962;SDS011;6546;49.882;8.666;2023-03-24T00:38:26;4.10;;;3.30;;
12962;SDS011;6546;49.882;8.666;2023-03-24T00:40:54;4.67;;;2.93;;
12962;SDS011;6546;49.882;8.666;2023-03-24T00:43:23;3.00;;;2.70;;
12962;SDS011;6546;49.882;8.666;2023-03-24T00:45:56;6.20;;;3.10;;
12962;SDS011;6546;49.882;8.666;2023-03-24T00:48:26;4.10;;;3.00;;
12962;SDS011;6546;49.882;8.666;2023-03-24T00:50:54;3.83;;;2.90;;
12962;SDS011;6546;49.882;8.666;2023-03-24T00:53:23;4.97;;;3.27;;
12962;SDS011;6546;49.882;8.666;2023-03-24T00:55:54;3.17;;;2.67;;
12962;SDS011;6546;49.882;8.666;2023-03-24T00:58:22;4.97;;;3.30;;
12962;SDS011;6546;49.882;8.666;2023-03-24T01:00:54;3.43;;;3.07;;
12962;SDS011;6546;49.882;8.666;2023-03-24T01:03:23;3.10;;;2.80;;
12962;SDS011;6546;49.882;8.666;2023-03-24T01:05:52;4.73;;;2.97;;
12962;SDS011;6546;49.882;8.666;2023-03-24T01:08:26;12.40;;;9.97;;
12962;SDS011;6546;49.882;8.666;2023-03-24T01:10:56;7.97;;;6.10;;
12962;SDS011;6546;49.882;8.666;2023-03-24T01:13:26;13.67;;;10.63;;
12962;SDS011;6546;49.882;8.666;2023-03-24T01:15:55;12.37;;;8.73;;
12962;SDS011;6546;49.882;8.666;2023-03-24T01:18:22;4.60;;;4.17;;
12962;SDS011;6546;49.882;8.666;2023-03-24T01:20:49;5.50;;;4.60;;
12962;SDS011;6546;49.882;8.666;2023-03-24T01:23:19;3.77;;;3.30;;
12962;SDS011;6546;49.882;8.666;2023-03-24T01:25:50;3.30;;;2.97;;
12962;SDS011;6546;49.882;8.666;2023-03-24T01:28:19;3.67;;;3.33;;
12962;SDS011;6546;49.882;8.666;2023-03-24T01:30:49;5.87;;;3.30;;
12962;SDS011;6546;49.882;8.666;2023-03-24T01:33:16;4.60;;;3.87;;
12962;SDS011;6546;49.882;8.666;2023-03-24T01:35:43;3.57;;;3.13;;
12962;SDS011;6546;49.882;8.666;2023-03-24T01:38:11;4.43;;;3.50;;
12962;SDS011;6546;49.882;8.666;2023-03-24T01:40:39;4.37;;;3.50;;
12962;SDS011;6546;49.882;8.666;2023-03-24T01:43:14;3.57;;;2.73;;
12962;SDS011;6546;49.882;8.666;2023-03-24T01:45:57;3.03;;;2.80;;
12962;SDS011;6546;49.882;8.666;2023-03-24T01:48:29;2.97;;;2.67;;
12962;SDS011;6546;49.882;8.666;2023-03-24T01:51:03;2.93;;;2.63;;
12962;SDS011;6546;49.882;8.666;2023-03-24T01:53:35;3.27;;;2.90;;
12962;SDS011;6546;49.882;8.666;2023-03-24T01:56:04;4.03;;;2.73;;
12962;SDS011;6546;49.882;8.666;2023-03-24T01:58:35;4.70;;;3.00;;
12962;SDS011;6546;49.882;8.666;2023-03-24T02:01:06;3.20;;;2.90;;
12962;SDS011;6546;49.882;8.666;2023-03-24T02:03:34;4.07;;;3.30;;
12962;SDS011;6546;49.882;8.666;2023-03-24T02:06:02;3.50;;;2.93;;
12962;SDS011;6546;49.882;8.666;2023-03-24T02:08:31;4.17;;;3.00;;
12962;SDS011;6546;49.882;8.666;2023-03-24T02:11:03;3.80;;;2.77;;
12962;SDS011;6546;49.882;8.666;2023-03-24T02:13:30;3.93;;;2.80;;
12962;SDS011;6546;49.882;8.666;2023-03-24T02:16:01;3.00;;;2.57;;
12962;SDS011;6546;49.882;8.666;2023-03-24T02:18:39;3.33;;;2.80;;
12962;SDS011;6546;49.882;8.666;2023-03-24T02:21:19;3.20;;;2.60;;
12962;SDS011;6546;49.882;8.666;2023-03-24T02:27:06;2.60;;;2.40;;
12962;SDS011;6546;49.882;8.666;2023-03-24T02:35:50;2.90;;;2.57;;
12962;SDS011;6546;49.882;8.666;2023-03-24T02:41:33;3.47;;;2.50;;
12962;SDS011;6546;49.882;8.666;2023-03-24T02:44:10;2.93;;;2.43;;
12962;SDS011;6546;49.882;8.666;2023-03-24T02:46:46;2.57;;;2.37;;
12962;SDS011;6546;49.882;8.666;2023-03-24T02:49:20;3.43;;;2.53;;
12962;SDS011;6546;49.882;8.666;2023-03-24T02:51:54;2.77;;;2.50;;
12962;SDS011;6546;49.882;8.666;2023-03-24T02:54:26;3.27;;;2.23;;
12962;SDS011;6546;49.882;8.666;2023-03-24T02:57:05;2.60;;;2.40;;
12962;SDS011;6546;49.882;8.666;2023-03-24T02:59:35;3.83;;;2.53;;
12962;SDS011;6546;49.882;8.666;2023-03-24T03:02:06;3.57;;;2.60;;
12962;SDS011;6546;49.882;8.666;2023-03-24T03:04:38;3.07;;;2.47;;
12962;SDS011;6546;49.882;8.666;2023-03-24T03:07:10;2.87;;;2.23;;
12962;SDS011;6546;49.882;8.666;2023-03-24T03:09:42;3.07;;;2.30;;
12962;SDS011;6546;49.882;8.666;2023-03-24T03:12:14;3.83;;;2.70;;
12962;SDS011;6546;49.882;8.666;2023-03-24T03:14:45;2.60;;;2.20;;
12962;SDS011;6546;49.882;8.666;2023-03-24T03:17:17;2.63;;;2.43;;
12962;SDS011;6546;49.882;8.666;2023-03-24T03:19:48;2.53;;;2.33;;
12962;SDS011;6546;49.882;8.666;2023-03-24T03:22:20;3.27;;;2.43;;
12962;SDS011;6546;49.882;8.666;2023-03-24T03:24:51;3.00;;;2.23;;
12962;SDS011;6546;49.882;8.666;2023-03-24T03:27:23;2.60;;;2.40;;
12962;SDS011;6546;49.882;8.666;2023-03-24T03:29:53;3.23;;;2.30;;
12962;SDS011;6546;49.882;8.666;2023-03-24T03:32:25;2.90;;;2.53;;
12962;SDS011;6546;49.882;8.666;2023-03-24T03:34:56;3.67;;;2.47;;
12962;SDS011;6546;49.882;8.666;2023-03-24T03:37:29;2.70;;;2.30;;
12962;SDS011;6546;49.882;8.666;2023-03-24T03:40:01;2.60;;;2.40;;
12962;SDS011;6546;49.882;8.666;2023-03-24T03:42:37;3.13;;;2.83;;
12962;SDS011;6546;49.882;8.666;2023-03-24T03:45:05;4.83;;;3.03;;
12962;SDS011;6546;49.882;8.666;2023-03-24T03:47:34;3.67;;;2.63;;
12962;SDS011;6546;49.882;8.666;2023-03-24T03:50:01;4.70;;;2.90;;
12962;SDS011;6546;49.882;8.666;2023-03-24T03:52:28;4.00;;;3.07;;
12962;SDS011;6546;49.882;8.666;2023-03-24T03:54:55;4.37;;;3.07;;
12962;SDS011;6546;49.882;8.666;2023-03-24T03:57:23;3.00;;;2.80;;
12962;SDS011;6546;49.882;8.666;2023-03-24T03:59:53;3.27;;;2.93;;
12962;SDS011;6546;49.882;8.666;2023-03-24T04:02:27;3.90;;;2.97;;
12962;SDS011;6546;49.882;8.666;2023-03-24T04:08:12;4.60;;;3.60;;
12962;SDS011;6546;49.882;8.666;2023-03-24T04:13:48;3.50;;;3.20;;
12962;SDS011;6546;49.882;8.666;2023-03-24T04:16:29;4.90;;;3.67;;
12962;SDS011;6546;49.882;8.666;2023-03-24T04:19:10;4.37;;;3.70;;
12962;SDS011;6546;49.882;8.666;2023-03-24T04:21:49;4.50;;;3.77;;
12962;SDS011;6546;49.882;8.666;2023-03-24T04:24:31;4.60;;;4.20;;
12962;SDS011;6546;49.882;8.666;2023-03-24T04:27:06;6.13;;;4.40;;
12962;SDS011;6546;49.882;8.666;2023-03-24T04:29:39;4.70;;;4.03;;
12962;SDS011;6546;49.882;8.666;2023-03-24T04:32:19;4.40;;;3.67;;
12962;SDS011;6546;49.882;8.666;2023-03-24T04:34:55;6.10;;;3.97;;
12962;SDS011;6546;49.882;8.666;2023-03-24T04:37:26;4.53;;;4.07;;
12962;SDS011;6546;49.882;8.666;2023-03-24T04:39:57;4.40;;;4.00;;
12962;SDS011;6546;49.882;8.666;2023-03-24T04:42:26;5.43;;;4.30;;
12962;SDS011;6546;49.882;8.666;2023-03-24T04:44:57;4.70;;;4.27;;
12962;SDS011;6546;49.882;8.666;2023-03-24T04:47:28;5.00;;;4.50;;
12962;SDS011;6546;49.882;8.666;2023-03-24T04:49:59;4.80;;;4.40;;
12962;SDS011;6546;49.882;8.666;2023-03-24T04:52:26;4.83;;;4.17;;
12962;SDS011;6546;49.882;8.666;2023-03-24T04:54:53;4.60;;;4.10;;
12962;SDS011;6546;49.882;8.666;2023-03-24T04:57:20;4.80;;;4.40;;
12962;SDS011;6546;49.882;8.666;2023-03-24T04:59:46;4.50;;;4.10;;
12962;SDS011;6546;49.882;8.666;2023-03-24T05:02:13;6.10;;;4.43;;
12962;SDS011;6546;49.882;8.666;2023-03-24T05:04:41;5.27;;;4.77;;
12962;SDS011;6546;49.882;8.666;2023-03-24T05:07:07;6.17;;;5.00;;
12962;SDS011;6546;49.882;8.666;2023-03-24T05:09:35;8.07;;;5.33;;
12962;SDS011;6546;49.882;8.666;2023-03-24T05:12:02;5.27;;;4.80;;
12962;SDS011;6546;49.882;8.666;2023-03-24T05:14:28;5.43;;;5.00;;
12962;SDS011;6546;49.882;8.666;2023-03-24T05:16:55;6.47;;;4.90;;
12962;SDS011;6546;49.882;8.666;2023-03-24T05:19:21;7.87;;;5.97;;
12962;SDS011;6546;49.882;8.666;2023-03-24T05:21:49;8.83;;;5.13;;
12962;SDS011;6546;49.882;8.666;2023-03-24T05:24:17;5.50;;;4.93;;
12962;SDS011;6546;49.882;8.666;2023-03-24T05:26:44;5.80;;;4.87;;
12962;SDS011;6546;49.882;8.666;2023-03-24T05:29:10;4.97;;;4.57;;
12962;SDS011;6546;49.882;8.666;2023-03-24T05:31:37;6.37;;;5.13;;
12962;SDS011;6546;49.882;8.666;2023-03-24T05:34:03;4.97;;;4.47;;
12962;SDS011;6546;49.882;8.666;2023-03-24T05:36:31;5.10;;;4.60;;
12962;SDS011;6546;49.882;8.666;2023-03-24T05:38:58;4.77;;;4.37;;
12962;SDS011;6546;49.882;8.666;2023-03-24T05:41:25;5.40;;;4.90;;
12962;SDS011;6546;49.882;8.666;2023-03-24T05:43:52;6.97;;;4.50;;
12962;SDS011;6546;49.882;8.666;2023-03-24T05:46:18;5.47;;;4.93;;
12962;SDS011;6546;49.882;8.666;2023-03-24T05:48:45;5.30;;;4.00;;
12962;SDS011;6546;49.882;8.666;2023-03-24T05:51:12;4.60;;;4.10;;
12962;SDS011;6546;49.882;8.666;2023-03-24T05:53:38;3.90;;;3.60;;
12962;SDS011;6546;49.882;8.666;2023-03-24T05:56:07;4.30;;;3.83;;
12962;SDS011;6546;49.882;8.666;2023-03-24T05:58:35;4.90;;;4.40;;
12962;SDS011;6546;49.882;8.666;2023-03-24T06:01:05;4.60;;;4.20;;
12962;SDS011;6546;49.882;8.666;2023-03-24T06:03:32;5.03;;;4.23;;
12962;SDS011;6546;49.882;8.666;2023-03-24T06:06:03;4.40;;;4.00;;
12962;SDS011;6546;49.882;8.666;2023-03-24T06:08:30;5.57;;;3.83;;
12962;SDS011;6546;49.882;8.666;2023-03-24T06:10:58;4.47;;;4.07;;
12962;SDS011;6546;49.882;8.666;2023-03-24T06:13:27;5.73;;;5.13;;
12962;SDS011;6546;49.882;8.666;2023-03-24T06:15:55;5.90;;;4.63;;
12962;SDS011;6546;49.882;8.666;2023-03-24T06:18:23;6.67;;;5.77;;
12962;SDS011;6546;49.882;8.666;2023-03-24T06:20:51;5.10;;;4.60;;
12962;SDS011;6546;49.882;8.666;2023-03-24T06:23:20;4.43;;;4.00;;
12962;SDS011;6546;49.882;8.666;2023-03-24T06:25:48;4.80;;;4.40;;
12962;SDS011;6546;49.882;8.666;2023-03-24T06:28:15;5.67;;;4.30;;
12962;SDS011;6546;49.882;8.666;2023-03-24T06:30:43;5.27;;;4.50;;
12962;SDS011;6546;49.882;8.666;2023-03-24T06:33:11;5.70;;;4.37;;
12962;SDS011;6546;49.882;8.666;2023-03-24T06:35:38;4.63;;;4.10;;
12962;SDS011;6546;49.882;8.666;2023-03-24T06:38:05;3.97;;;3.57;;
12962;SDS011;6546;49.882;8.666;2023-03-24T06:40:32;3.13;;;2.77;;
12962;SDS011;6546;49.882;8.666;2023-03-24T06:42:59;3.57;;;3.27;;
12962;SDS011;6546;49.882;8.666;2023-03-24T06:45:26;3.93;;;3.40;;
12962;SDS011;6546;49.882;8.666;2023-03-24T06:47:54;4.50;;;3.20;;
12962;SDS011;6546;49.882;8.666;2023-03-24T06:50:20;3.33;;;3.10;;
12962;SDS011;6546;49.882;8.666;2023-03-24T06:52:50;4.37;;;3.30;;
12962;SDS011;6546;49.882;8.666;2023-03-24T06:55:17;3.23;;;2.93;;
12962;SDS011;6546;49.882;8.666;2023-03-24T06:57:46;3.13;;;2.80;;
12962;SDS011;6546;49.882;8.666;2023-03-24T07:00:13;3.33;;;3.03;;
12962;SDS011;6546;49.882;8.666;2023-03-24T07:02:40;3.60;;;3.30;;
12962;SDS011;6546;49.882;8.666;2023-03-24T07:05:08;4.03;;;3.57;;
12962;SDS011;6546;49.882;8.666;2023-03-24T07:07:35;5.60;;;3.30;;
12962;SDS011;6546;49.882;8.666;2023-03-24T07:10:02;3.50;;;3.20;;
12962;SDS011;6546;49.882;8.666;2023-03-24T07:12:30;3.07;;;2.77;;
12962;SDS011;6546;49.882;8.666;2023-03-24T07:14:57;2.83;;;2.63;;
12962;SDS011;6546;49.882;8.666;2023-03-24T07:17:24;3.87;;;3.07;;
12962;SDS011;6546;49.882;8.666;2023-03-24T07:19:50;4.33;;;3.40;;
12962;SDS011;6546;49.882;8.666;2023-03-24T07:22:18;4.70;;;4.00;;
12962;SDS011;6546;49.882;8.666;2023-03-24T07:24:45;4.97;;;3.10;;
12962;SDS011;6546;49.882;8.666;2023-03-24T07:27:11;2.93;;;2.53;;
12962;SDS011;6546;49.882;8.666;2023-03-24T07:29:38;3.27;;;2.87;;
12962;SDS011;6546;49.882;8.666;2023-03-24T07:32:05;3.53;;;3.20;;
12962;SDS011;6546;49.882;8.666;2023-03-24T07:34:32;4.87;;;3.50;;
12962;SDS011;6546;49.882;8.666;2023-03-24T07:37:00;3.90;;;3.60;;
12962;SDS011;6546;49.882;8.666;2023-03-24T07:39:28;4.43;;;3.90;;
12962;SDS011;6546;49.882;8.666;2023-03-24T07:41:55;4.33;;;3.80;;
12962;SDS011;6546;49.882;8.666;2023-03-24T07:44:21;6.43;;;4.70;;
12962;SDS011;6546;49.882;8.666;2023-03-24T07:46:48;4.67;;;3.90;;
12962;SDS011;6546;49.882;8.666;2023-03-24T07:49:15;5.80;;;4.20;;
12962;SDS011;6546;49.882;8.666;2023-03-24T07:51:41;6.00;;;4.40;;
12962;SDS011;6546;49.882;8.666;2023-03-24T07:54:08;5.00;;;4.60;;
12962;SDS011;6546;49.882;8.666;2023-03-24T07:56:36;6.37;;;4.53;;
12962;SDS011;6546;49.882;8.666;2023-03-24T07:59:03;4.67;;;4.27;;
12962;SDS011;6546;49.882;8.666;2023-03-24T08:01:30;4.80;;;4.40;;
12962;SDS011;6546;49.882;8.666;2023-03-24T08:03:56;7.90;;;5.10;;
12962;SDS011;6546;49.882;8.666;2023-03-24T08:06:23;5.73;;;4.87;;
12962;SDS011;6546;49.882;8.666;2023-03-24T08:08:50;4.90;;;4.40;;
12962;SDS011;6546;49.882;8.666;2023-03-24T08:11:17;5.07;;;4.57;;
12962;SDS011;6546;49.882;8.666;2023-03-24T08:13:45;5.33;;;4.83;;
12962;SDS011;6546;49.882;8.666;2023-03-24T08:16:11;6.43;;;4.97;;
12962;SDS011;6546;49.882;8.666;2023-03-24T08:18:38;9.40;;;7.97;;
12962;SDS011;6546;49.882;8.666;2023-03-24T08:21:05;7.00;;;6.30;;
12962;SDS011;6546;49.882;8.666;2023-03-24T08:23:31;6.93;;;5.57;;
12962;SDS011;6546;49.882;8.666;2023-03-24T08:26:00;5.73;;;5.13;;
12962;SDS011;6546;49.882;8.666;2023-03-24T08:28:27;7.00;;;6.10;;
12962;SDS011;6546;49.882;8.666;2023-03-24T08:30:55;5.50;;;5.00;;
12962;SDS011;6546;49.882;8.666;2023-03-24T08:33:21;5.33;;;4.83;;
12962;SDS011;6546;49.882;8.666;2023-03-24T08:35:48;7.40;;;5.17;;
12962;SDS011;6546;49.882;8.666;2023-03-24T08:38:15;7.53;;;5.83;;
12962;SDS011;6546;49.882;8.666;2023-03-24T08:40:42;6.50;;;5.87;;
12962;SDS011;6546;49.882;8.666;2023-03-24T08:43:11;6.83;;;6.10;;
12962;SDS011;6546;49.882;8.666;2023-03-24T08:45:39;6.17;;;5.53;;
12962;SDS011;6546;49.882;8.666;2023-03-24T08:48:08;7.50;;;6.17;;
12962;SDS011;6546;49.882;8.666;2023-03-24T08:50:36;6.90;;;6.30;;
12962;SDS011;6546;49.882;8.666;2023-03-24T08:53:03;6.40;;;5.83;;
12962;SDS011;6546;49.882;8.666;2023-03-24T08:55:30;6.30;;;5.70;;
12962;SDS011;6546;49.882;8.666;2023-03-24T08:57:57;6.40;;;5.80;;
12962;SDS011;6546;49.882;8.666;2023-03-24T09:00:24;7.37;;;6.43;;
12962;SDS011;6546;49.882;8.666;2023-03-24T09:02:51;6.67;;;6.07;;
12962;SDS011;6546;49.882;8.666;2023-03-24T09:05:21;7.53;;;6.13;;
12962;SDS011;6546;49.882;8.666;2023-03-24T09:07:49;7.43;;;6.27;;
12962;SDS011;6546;49.882;8.666;2023-03-24T09:10:17;7.20;;;6.60;;
12962;SDS011;6546;49.882;8.666;2023-03-24T09:12:43;7.53;;;6.83;;
12962;SDS011;6546;49.882;8.666;2023-03-24T09:15:11;7.63;;;6.83;;
12962;SDS011;6546;49.882;8.666;2023-03-24T09:17:39;7.33;;;6.63;;
12962;SDS011;6546;49.882;8.666;2023-03-24T09:20:07;8.33;;;6.17;;
12962;SDS011;6546;49.882;8.666;2023-03-24T09:22:38;6.87;;;5.70;;
12962;SDS011;6546;49.882;8.666;2023-03-24T09:25:06;8.03;;;7.23;;
12962;SDS011;6546;49.882;8.666;2023-03-24T09:27:34;6.63;;;5.93;;
12962;SDS011;6546;49.882;8.666;2023-03-24T09:30:00;6.53;;;5.93;;
12962;SDS011;6546;49.882;8.666;2023-03-24T09:32:27;6.00;;;5.40;;
12962;SDS011;6546;49.882;8.666;2023-03-24T09:34:54;5.70;;;5.20;;
12962;SDS011;6546;49.882;8.666;2023-03-24T09:37:21;5.83;;;5.07;;
12962;SDS011;6546;49.882;8.666;2023-03-24T09:39:49;6.53;;;5.00;;
12962;SDS011;6546;49.882;8.666;2023-03-24T09:42:19;5.33;;;4.83;;
12962;SDS011;6546;49.882;8.666;2023-03-24T09:44:49;6.33;;;5.30;;
12962;SDS011;6546;49.882;8.666;2023-03-24T09:47:22;7.33;;;5.43;;
12962;SDS011;6546;49.882;8.666;2023-03-24T09:49:53;6.13;;;5.50;;
12962;SDS011;6546;49.882;8.666;2023-03-24T09:52:22;5.97;;;5.37;;
12962;SDS011;6546;49.882;8.666;2023-03-24T09:54:54;7.97;;;5.63;;
12962;SDS011;6546;49.882;8.666;2023-03-24T09:57:23;5.87;;;5.30;;
12962;SDS011;6546;49.882;8.666;2023-03-24T09:59:53;7.70;;;5.90;;
12962;SDS011;6546;49.882;8.666;2023-03-24T10:02:21;7.60;;;5.30;;
12962;SDS011;6546;49.882;8.666;2023-03-24T10:04:48;5.23;;;4.73;;
12962;SDS011;6546;49.882;8.666;2023-03-24T10:07:17;2.63;;;2.30;;
12962;SDS011;6546;49.882;8.666;2023-03-24T10:09:49;2.37;;;1.53;;
12962;SDS011;6546;49.882;8.666;2023-03-24T10:12:24;4.17;;;1.30;;
12962;SDS011;6546;49.882;8.666;2023-03-24T10:15:02;3.10;;;1.60;;
12962;SDS011;6546;49.882;8.666;2023-03-24T10:17:37;4.07;;;1.50;;
12962;SDS011;6546;49.882;8.666;2023-03-24T10:20:13;4.90;;;1.60;;
12962;SDS011;6546;49.882;8.666;2023-03-24T10:22:51;4.53;;;1.80;;
12962;SDS011;6546;49.882;8.666;2023-03-24T10:25:29;5.87;;;2.10;;
12962;SDS011;6546;49.882;8.666;2023-03-24T10:28:07;7.30;;;2.23;;
12962;SDS011;6546;49.882;8.666;2023-03-24T10:30:41;3.87;;;1.87;;
12962;SDS011;6546;49.882;8.666;2023-03-24T10:33:10;4.67;;;2.23;;
12962;SDS011;6546;49.882;8.666;2023-03-24T10:35:40;4.17;;;1.67;;
12962;SDS011;6546;49.882;8.666;2023-03-24T10:38:12;3.63;;;1.63;;
12962;SDS011;6546;49.882;8.666;2023-03-24T10:40:44;3.67;;;1.67;;
12962;SDS011;6546;49.882;8.666;2023-03-24T10:43:11;5.43;;;1.90;;
12962;SDS011;6546;49.882;8.666;2023-03-24T10:45:39;3.63;;;1.80;;
12962;SDS011;6546;49.882;8.666;2023-03-24T10:48:08;3.90;;;1.80;;
12962;SDS011;6546;49.882;8.666;2023-03-24T10:50:40;2.90;;;1.50;;
12962;SDS011;6546;49.882;8.666;2023-03-24T10:53:08;5.20;;;2.50;;
12962;SDS011;6546;49.882;8.666;2023-03-24T10:55:44;4.13;;;1.70;;
12962;SDS011;6546;49.882;8.666;2023-03-24T10:58:14;2.97;;;1.50;;
12962;SDS011;6546;49.882;8.666;2023-03-24T11:00:46;1.63;;;1.43;;
12962;SDS011;6546;49.882;8.666;2023-03-24T11:03:15;4.60;;;1.60;;
12962;SDS011;6546;49.882;8.666;2023-03-24T11:05:48;3.53;;;1.70;;
12962;SDS011;6546;49.882;8.666;2023-03-24T11:08:24;1.97;;;1.40;;
12962;SDS011;6546;49.882;8.666;2023-03-24T11:10:54;1.50;;;1.40;;
12962;SDS011;6546;49.882;8.666;2023-03-24T11:13:25;2.80;;;1.70;;
12962;SDS011;6546;49.882;8.666;2023-03-24T11:15:55;2.37;;;1.70;;
12962;SDS011;6546;49.882;8.666;2023-03-24T11:18:29;6.97;;;6.27;;
12962;SDS011;6546;49.882;8.666;2023-03-24T11:20:56;3.53;;;1.83;;
12962;SDS011;6546;49.882;8.666;2023-03-24T11:23:28;3.33;;;2.93;;
12962;SDS011;6546;49.882;8.666;2023-03-24T11:26:05;2.70;;;1.70;;
12962;SDS011;6546;49.882;8.666;2023-03-24T11:28:35;7.73;;;2.13;;
12962;SDS011;6546;49.882;8.666;2023-03-24T11:31:06;2.80;;;1.50;;
12962;SDS011;6546;49.882;8.666;2023-03-24T11:33:35;7.67;;;1.90;;
12962;SDS011;6546;49.882;8.666;2023-03-24T11:39:09;3.30;;;1.27;;
12962;SDS011;6546;49.882;8.666;2023-03-24T11:41:39;3.23;;;1.23;;
12962;SDS011;6546;49.882;8.666;2023-03-24T11:44:16;5.07;;;1.60;;
12962;SDS011;6546;49.882;8.666;2023-03-24T11:46:44;3.13;;;1.20;;
12962;SDS011;6546;49.882;8.666;2023-03-24T11:49:14;4.20;;;1.50;;
12962;SDS011;6546;49.882;8.666;2023-03-24T11:51:45;5.23;;;1.63;;
12962;SDS011;6546;49.882;8.666;2023-03-24T11:54:15;3.57;;;1.87;;
12962;SDS011;6546;49.882;8.666;2023-03-24T11:56:46;4.77;;;1.60;;
12962;SDS011;6546;49.882;8.666;2023-03-24T11:59:18;7.43;;;1.60;;
12962;SDS011;6546;49.882;8.666;2023-03-24T12:01:56;6.80;;;1.77;;
12962;SDS011;6546;49.882;8.666;2023-03-24T12:04:40;3.00;;;1.67;;
12962;SDS011;6546;49.882;8.666;2023-03-24T12:10:26;5.47;;;1.60;;
12962;SDS011;6546;49.882;8.666;2023-03-24T12:13:06;4.83;;;1.70;;
12962;SDS011;6546;49.882;8.666;2023-03-24T12:15:39;9.00;;;2.20;;
12962;SDS011;6546;49.882;8.666;2023-03-24T12:21:18;4.23;;;1.80;;
12962;SDS011;6546;49.882;8.666;2023-03-24T12:23:56;4.87;;;1.60;;
12962;SDS011;6546;49.882;8.666;2023-03-24T12:26:26;4.50;;;1.60;;
12962;SDS011;6546;49.882;8.666;2023-03-24T12:28:57;6.47;;;2.40;;
12962;SDS011;6546;49.882;8.666;2023-03-24T12:31:46;3.33;;;1.77;;
12962;SDS011;6546;49.882;8.666;2023-03-24T12:34:27;3.50;;;1.47;;
12962;SDS011;6546;49.882;8.666;2023-03-24T12:37:15;10.97;;;3.23;;
12962;SDS011;6546;49.882;8.666;2023-03-24T12:39:49;3.87;;;1.80;;
12962;SDS011;6546;49.882;8.666;2023-03-24T12:42:28;4.90;;;1.90;;
12962;SDS011;6546;49.882;8.666;2023-03-24T12:45:05;4.13;;;1.53;;
12962;SDS011;6546;49.882;8.666;2023-03-24T12:47:51;2.77;;;1.50;;
12962;SDS011;6546;49.882;8.666;2023-03-24T12:50:29;4.40;;;2.27;;
12962;SDS011;6546;49.882;8.666;2023-03-24T12:53:11;2.43;;;1.60;;
12962;SDS011;6546;49.882;8.666;2023-03-24T12:55:48;3.27;;;1.17;;
12962;SDS011;6546;49.882;8.666;2023-03-24T12:58:18;2.47;;;1.60;;
12962;SDS011;6546;49.882;8.666;2023-03-24T13:00:54;1.90;;;1.40;;
12962;SDS011;6546;49.882;8.666;2023-03-24T13:03:26;3.20;;;1.23;;
12962;SDS011;6546;49.882;8.666;2023-03-24T13:05:57;3.90;;;1.47;;
12962;SDS011;6546;49.882;8.666;2023-03-24T13:08:29;3.27;;;1.40;;
12962;SDS011;6546;49.882;8.666;2023-03-24T13:10:56;3.60;;;1.20;;
12962;SDS011;6546;49.882;8.666;2023-03-24T13:13:30;3.73;;;1.40;;
12962;SDS011;6546;49.882;8.666;2023-03-24T13:16:03;7.00;;;1.93;;
12962;SDS011;6546;49.882;8.666;2023-03-24T13:18:35;2.73;;;1.53;;
12962;SDS011;6546;49.882;8.666;2023-03-24T13:21:05;4.37;;;1.30;;
12962;SDS011;6546;49.882;8.666;2023-03-24T13:23:38;5.60;;;2.03;;
12962;SDS011;6546;49.882;8.666;2023-03-24T13:26:10;3.73;;;1.40;;
12962;SDS011;6546;49.882;8.666;2023-03-24T13:28:47;4.30;;;1.37;;
12962;SDS011;6546;49.882;8.666;2023-03-24T13:31:24;4.17;;;1.57;;
12962;SDS011;6546;49.882;8.666;2023-03-24T13:33:53;2.60;;;1.47;;
12962;SDS011;6546;49.882;8.666;2023-03-24T13:36:24;3.30;;;1.30;;
12962;SDS011;6546;49.882;8.666;2023-03-24T13:39:00;2.33;;;1.50;;
12962;SDS011;6546;49.882;8.666;2023-03-24T13:41:34;4.70;;;1.87;;
12962;SDS011;6546;49.882;8.666;2023-03-24T13:44:05;3.43;;;1.30;;
12962;SDS011;6546;49.882;8.666;2023-03-24T13:46:36;3.43;;;1.50;;
12962;SDS011;6546;49.882;8.666;2023-03-24T13:49:07;4.60;;;1.40;;
12962;SDS011;6546;49.882;8.666;2023-03-24T13:51:39;2.90;;;1.30;;
12962;SDS011;6546;49.882;8.666;2023-03-24T13:54:11;5.33;;;1.40;;
12962;SDS011;6546;49.882;8.666;2023-03-24T13:56:44;6.53;;;1.80;;
12962;SDS011;6546;49.882;8.666;2023-03-24T13:59:25;5.57;;;1.50;;
12962;SDS011;6546;49.882;8.666;2023-03-24T14:05:07;5.13;;;3.63;;
12962;SDS011;6546;49.882;8.666;2023-03-24T14:07:42;9.70;;;8.20;;
12962;SDS011;6546;49.882;8.666;2023-03-24T14:12:56;4.93;;;1.97;;
12962;SDS011;6546;49.882;8.666;2023-03-24T14:15:28;3.77;;;1.60;;
12962;SDS011;6546;49.882;8.666;2023-03-24T14:18:12;2.33;;;1.40;;
12962;SDS011;6546;49.882;8.666;2023-03-24T14:20:42;6.27;;;4.63;;
12962;SDS011;6546;49.882;8.666;2023-03-24T14:23:25;4.40;;;2.00;;
12962;SDS011;6546;49.882;8.666;2023-03-24T14:25:59;4.90;;;2.10;;
12962;SDS011;6546;49.882;8.666;2023-03-24T14:28:27;10.90;;;7.53;;
12962;SDS011;6546;49.882;8.666;2023-03-24T14:31:00;3.00;;;1.60;;
12962;SDS011;6546;49.882;8.666;2023-03-24T14:33:29;4.37;;;2.20;;
12962;SDS011;6546;49.882;8.666;2023-03-24T14:35:56;3.27;;;1.37;;
12962;SDS011;6546;49.882;8.666;2023-03-24T14:38:29;5.67;;;2.07;;
12962;SDS011;6546;49.882;8.666;2023-03-24T14:41:04;4.57;;;1.40;;
12962;SDS011;6546;49.882;8.666;2023-03-24T14:46:34;3.33;;;1.30;;
12962;SDS011;6546;49.882;8.666;2023-03-24T14:49:06;3.50;;;1.23;;
12962;SDS011;6546;49.882;8.666;2023-03-24T14:51:43;2.30;;;1.00;;
12962;SDS011;6546;49.882;8.666;2023-03-24T14:54:16;8.13;;;4.50;;
12962;SDS011;6546;49.882;8.666;2023-03-24T14:56:52;6.23;;;4.40;;
12962;SDS011;6546;49.882;8.666;2023-03-24T14:59:24;4.10;;;1.20;;
12962;SDS011;6546;49.882;8.666;2023-03-24T15:02:00;2.10;;;1.10;;
12962;SDS011;6546;49.882;8.666;2023-03-24T15:04:32;3.10;;;1.60;;
12962;SDS011;6546;49.882;8.666;2023-03-24T15:07:03;2.03;;;1.40;;
12962;SDS011;6546;49.882;8.666;2023-03-24T15:09:30;3.53;;;1.50;;
12962;SDS011;6546;49.882;8.666;2023-03-24T15:12:01;3.27;;;1.23;;
12962;SDS011;6546;49.882;8.666;2023-03-24T15:14:29;2.87;;;2.03;;
12962;SDS011;6546;49.882;8.666;2023-03-24T15:16:56;5.03;;;2.27;;
12962;SDS011;6546;49.882;8.666;2023-03-24T15:19:27;3.83;;;1.73;;
12962;SDS011;6546;49.882;8.666;2023-03-24T15:21:58;3.97;;;1.50;;
12962;SDS011;6546;49.882;8.666;2023-03-24T15:24:31;2.87;;;1.50;;
12962;SDS011;6546;49.882;8.666;2023-03-24T15:27:18;3.23;;;1.80;;
12962;SDS011;6546;49.882;8.666;2023-03-24T15:29:52;4.43;;;1.63;;
12962;SDS011;6546;49.882;8.666;2023-03-24T15:32:22;2.63;;;1.20;;
12962;SDS011;6546;49.882;8.666;2023-03-24T15:34:52;2.83;;;1.60;;
12962;SDS011;6546;49.882;8.666;2023-03-24T15:37:21;3.40;;;1.50;;
12962;SDS011;6546;49.882;8.666;2023-03-24T15:39:49;2.43;;;1.30;;
12962;SDS011;6546;49.882;8.666;2023-03-24T15:42:18;3.50;;;1.37;;
12962;SDS011;6546;49.882;8.666;2023-03-24T15:44:47;4.13;;;1.93;;
12962;SDS011;6546;49.882;8.666;2023-03-24T15:47:15;4.07;;;1.20;;
12962;SDS011;6546;49.882;8.666;2023-03-24T15:49:46;3.67;;;1.73;;
12962;SDS011;6546;49.882;8.666;2023-03-24T15:52:25;3.50;;;1.90;;
12962;SDS011;6546;49.882;8.666;2023-03-24T15:54:55;3.43;;;1.40;;
12962;SDS011;6546;49.882;8.666;2023-03-24T15:57:25;2.83;;;1.23;;